Time;durP1;ratioP1;P1;durP2;ratioP2;P2;SDS_P1;SDS_P2;PMS_P1;PMS_P2;Temp;Humidity;BMP_temperature;BMP_pressure;BME280_temperature;BME280_humidity;BME280_pressure;Samples;Min_cycle;Max_cycle;Signal;HPM_P1;HPM_P2
2022/07/13 00:01:10;;;;;;;3.53;0.70;;;;;;;19.05;50.32;100776.56;5051640;28;20029;-73
2022/07/13 00:03:36;;;;;;;2.83;1.10;;;;;;;19.04;50.36;100791.19;5051159;28;20041;-73
2022/07/13 00:06:02;;;;;;;2.10;0.90;;;;;;;19.01;50.13;100772.50;5050077;28;20045;-73
2022/07/13 00:08:27;;;;;;;2.17;1.10;;;;;;;19.03;50.53;100781.34;5051173;28;20029;-73
2022/07/13 00:10:53;;;;;;;1.83;1.00;;;;;;;18.89;50.38;100765.78;5051024;28;20108;-72
2022/07/13 00:13:18;;;;;;;2.28;0.90;;;;;;;18.96;50.55;100773.03;5051079;28;20090;-73
2022/07/13 00:15:44;;;;;;;2.03;0.90;;;;;;;18.95;50.51;100768.63;5050991;28;20387;-73
2022/07/13 00:18:10;;;;;;;2.03;1.02;;;;;;;18.88;50.90;100774.94;5051213;28;20033;-73
2022/07/13 00:20:35;;;;;;;2.53;0.85;;;;;;;18.62;50.69;100744.50;5049597;28;20060;-72
2022/07/13 00:23:01;;;;;;;7.50;1.13;;;;;;;18.76;50.97;100773.66;5050986;28;20648;-73
2022/07/13 00:25:26;;;;;;;3.33;0.80;;;;;;;18.74;51.29;100772.97;5050894;28;20024;-74
2022/07/13 00:27:52;;;;;;;2.78;0.85;;;;;;;18.57;51.21;100758.59;5050762;28;20036;-72
2022/07/13 00:30:17;;;;;;;2.97;0.85;;;;;;;18.40;51.24;100726.22;5050864;28;20025;-74
2022/07/13 00:32:43;;;;;;;1.30;0.90;;;;;;;18.66;51.38;100767.56;5050783;28;20103;-74
2022/07/13 00:35:08;;;;;;;3.45;0.80;;;;;;;18.63;51.14;100774.22;5050900;28;20118;-74
2022/07/13 00:37:33;;;;;;;3.38;1.00;;;;;;;18.58;51.40;100765.75;5050649;28;20036;-73
2022/07/13 00:39:59;;;;;;;3.13;0.88;;;;;;;18.52;51.24;100785.47;5050587;28;20028;-74
2022/07/13 00:42:24;;;;;;;2.95;1.02;;;;;;;18.42;51.48;100773.94;5050724;28;20025;-73
2022/07/13 00:44:50;;;;;;;4.60;1.10;;;;;;;18.38;51.75;100780.72;5049167;28;20040;-74
2022/07/13 00:47:16;;;;;;;2.70;0.65;;;;;;;18.38;51.67;100780.72;5050561;28;20037;-73
2022/07/13 00:49:42;;;;;;;3.20;1.10;;;;;;;18.28;51.58;100768.34;5049195;28;20040;-73
2022/07/13 00:52:07;;;;;;;3.35;0.88;;;;;;;18.35;51.53;100775.63;5049087;28;20025;-73
2022/07/13 00:54:35;;;;;;;2.65;0.90;;;;;;;18.21;51.68;100762.75;5050640;28;20111;-72
2022/07/13 00:57:04;;;;;;;4.53;1.10;;;;;;;18.30;51.64;100769.84;5048912;28;20033;-72
2022/07/13 00:59:29;;;;;;;3.33;1.15;;;;;;;18.27;51.42;100759.34;5050322;28;20488;-73
2022/07/13 01:01:55;;;;;;;1.73;0.75;;;;;;;18.38;51.49;100774.47;5050019;28;20029;-72
2022/07/13 01:04:23;;;;;;;1.40;0.70;;;;;;;18.30;51.31;100779.88;5050696;28;20115;-74
2022/07/13 01:06:51;;;;;;;1.48;0.82;;;;;;;18.21;51.40;100761.91;5050605;28;20028;-74
2022/07/13 01:09:17;;;;;;;1.33;0.70;;;;;;;18.18;51.54;100759.53;5050130;28;20025;-72
2022/07/13 01:11:42;;;;;;;1.90;0.80;;;;;;;18.18;51.66;100767.69;5050177;28;20387;-73
2022/07/13 01:14:09;;;;;;;3.50;0.80;;;;;;;18.11;52.04;100762.09;5049917;28;20122;-73
2022/07/13 01:16:35;;;;;;;1.55;0.65;;;;;;;18.15;52.05;100759.88;5049938;28;20033;-73
2022/07/13 01:19:04;;;;;;;3.00;1.13;;;;;;;18.15;52.42;100768.03;5050021;28;20062;-72
2022/07/13 01:21:33;;;;;;;4.88;1.13;;;;;;;18.09;52.42;100764.97;5050042;28;20609;-74
2022/07/13 01:23:58;;;;;;;1.10;1.00;;;;;;;18.01;52.40;100742.41;5050264;28;20025;-73
2022/07/13 01:26:24;;;;;;;4.40;1.10;;;;;;;17.96;52.64;100742.09;5048845;28;20085;-72
2022/07/13 01:28:49;;;;;;;1.60;0.82;;;;;;;17.92;52.44;100738.88;5049627;28;20028;-74
2022/07/13 01:31:36;;;;;;;3.65;1.10;;;;;;;18.00;53.03;100748.88;5049773;28;20495;-73
2022/07/13 01:34:03;;;;;;;2.55;1.05;;;;;;;17.96;53.02;100744.81;5049809;28;20028;-74
2022/07/13 01:36:29;;;;;;;1.58;1.10;;;;;;;17.95;52.89;100748.53;5049860;28;20415;-73
2022/07/13 01:38:56;;;;;;;3.58;0.93;;;;;;;17.91;52.91;100739.91;5049623;28;20036;-73
2022/07/13 01:41:23;;;;;;;2.53;1.10;;;;;;;17.93;53.12;100745.16;5049800;28;20025;-73
2022/07/13 01:43:49;;;;;;;3.70;1.40;;;;;;;17.87;53.11;100741.25;5049689;28;20478;-73
2022/07/13 01:46:15;;;;;;;2.60;1.17;;;;;;;17.80;53.00;100733.97;5050025;28;20481;-74
2022/07/13 01:48:40;;;;;;;3.20;1.27;;;;;;;17.78;53.32;100736.00;5049779;28;20035;-73
2022/07/13 01:51:06;;;;;;;3.35;1.58;;;;;;;17.75;53.37;100720.06;5049542;28;20041;-73
2022/07/13 01:53:31;;;;;;;2.85;1.20;;;;;;;17.67;53.85;100722.78;5049827;28;20033;-74
2022/07/13 01:55:57;;;;;;;1.65;1.10;;;;;;;17.59;53.45;100709.22;5048059;28;20033;-73
2022/07/13 01:58:22;;;;;;;4.07;1.27;;;;;;;17.53;53.90;100704.47;5049437;28;20040;-73
2022/07/13 02:00:48;;;;;;;4.25;1.40;;;;;;;17.64;53.83;100728.56;5049419;28;20060;-73
2022/07/13 02:03:13;;;;;;;5.18;1.20;;;;;;;17.59;53.79;100722.78;5049305;28;20152;-73
2022/07/13 02:05:39;;;;;;;4.82;1.10;;;;;;;17.53;53.93;100726.16;5049267;28;20036;-74
2022/07/13 02:08:05;;;;;;;2.60;1.00;;;;;;;17.50;54.38;100716.50;5026987;28;20124;-73
2022/07/13 02:10:36;;;;;;;4.20;0.90;;;;;;;17.49;54.34;100725.69;5019364;28;20113;-73
2022/07/13 02:13:07;;;;;;;1.85;0.95;;;;;;;17.47;54.43;100722.28;5018267;28;20025;-73
2022/07/13 02:15:33;;;;;;;4.32;1.10;;;;;;;17.35;54.27;100707.31;5017263;28;20068;-72
2022/07/13 02:17:59;;;;;;;3.65;1.30;;;;;;;17.41;54.34;100722.09;5018531;28;20061;-73
2022/07/13 02:20:24;;;;;;;2.80;1.10;;;;;;;17.38;54.59;100717.00;5017102;28;20800;-73
2022/07/13 02:22:50;;;;;;;4.03;0.90;;;;;;;17.35;54.61;100714.63;5017715;28;20352;-74
2022/07/13 02:25:15;;;;;;;3.65;1.25;;;;;;;17.32;54.72;100714.94;5020105;28;20025;-73
2022/07/13 02:27:42;;;;;;;3.10;1.00;;;;;;;17.28;54.59;100716.31;5016447;28;20056;-72
2022/07/13 02:30:08;;;;;;;2.60;1.17;;;;;;;17.19;54.60;100714.59;5023596;28;20048;-74
2022/07/13 02:32:34;;;;;;;3.10;1.15;;;;;;;17.22;54.90;100722.41;5021831;28;20028;-73
2022/07/13 02:34:59;;;;;;;3.95;1.27;;;;;;;17.15;54.94;100713.25;5023116;28;20025;-73
2022/07/13 02:37:25;;;;;;;2.35;0.98;;;;;;;17.12;55.20;100719.00;5023186;28;20296;-74
2022/07/13 02:39:53;;;;;;;3.30;1.05;;;;;;;17.12;55.11;100716.28;5021553;28;20034;-73
2022/07/13 02:42:18;;;;;;;4.70;1.40;;;;;;;16.99;55.03;100700.47;5021993;28;20082;-73
2022/07/13 02:44:44;;;;;;;1.88;1.00;;;;;;;17.08;55.30;100714.91;5021347;28;20132;-73
2022/07/13 02:47:09;;;;;;;6.43;1.02;;;;;;;17.08;55.17;100720.31;5021733;28;20046;-73
2022/07/13 02:49:35;;;;;;;3.65;1.10;;;;;;;17.06;55.34;100708.81;5022608;28;20612;-73
2022/07/13 02:52:00;;;;;;;2.40;1.10;;;;;;;16.84;55.36;100693.19;5022972;28;20388;-74
2022/07/13 02:54:26;;;;;;;2.08;1.00;;;;;;;16.98;55.42;100714.19;5023902;28;20036;-74
2022/07/13 02:56:51;;;;;;;2.78;0.77;;;;;;;16.95;55.70;100719.94;5021266;28;20026;-73
2022/07/13 02:59:17;;;;;;;3.92;0.88;;;;;;;16.88;55.71;100706.22;5022186;28;20022;-73
2022/07/13 03:01:43;;;;;;;2.95;0.90;;;;;;;16.81;55.99;100709.75;5020695;28;20034;-73
2022/07/13 03:04:08;;;;;;;7.82;1.45;;;;;;;16.92;56.02;100714.84;5012935;28;20083;-74
2022/07/13 03:06:34;;;;;;;3.00;1.10;;;;;;;16.77;56.15;100701.09;5011531;28;20073;-73
2022/07/13 03:08:59;;;;;;;4.60;1.10;;;;;;;16.79;56.18;100709.91;5012706;28;20030;-73
2022/07/13 03:11:25;;;;;;;2.65;1.20;;;;;;;16.74;56.37;100700.59;5012631;28;20030;-73
2022/07/13 03:13:50;;;;;;;2.78;1.27;;;;;;;16.81;56.55;100715.19;5012661;28;20030;-73
2022/07/13 03:16:15;;;;;;;4.82;1.20;;;;;;;16.73;56.71;100717.88;5011465;28;20029;-73
2022/07/13 03:18:41;;;;;;;1.67;1.00;;;;;;;16.71;56.76;100718.03;5011307;28;20048;-73
2022/07/13 03:21:09;;;;;;;2.33;1.48;;;;;;;16.69;57.19;100728.19;5012611;28;20477;-74
2022/07/13 03:23:36;;;;;;;5.28;1.70;;;;;;;16.64;57.41;100727.81;5012599;28;20033;-74
2022/07/13 03:26:02;;;;;;;2.10;1.45;;;;;;;16.37;57.31;100694.66;5012632;28;20733;-73
2022/07/13 03:28:27;;;;;;;5.10;2.05;;;;;;;16.54;57.74;100726.25;5012145;28;20041;-73
2022/07/13 03:30:52;;;;;;;2.65;1.50;;;;;;;16.48;57.87;100716.91;5012492;28;20037;-73
2022/07/13 03:33:18;;;;;;;6.60;2.25;;;;;;;16.46;58.03;100734.34;5012496;28;20033;-72
2022/07/13 03:35:43;;;;;;;5.60;2.03;;;;;;;16.43;58.01;100730.09;5012260;28;20022;-74
2022/07/13 03:38:09;;;;;;;3.05;2.13;;;;;;;16.44;58.41;100729.06;5012380;28;20477;-73
2022/07/13 03:40:34;;;;;;;4.35;1.92;;;;;;;16.43;58.10;100730.09;5011981;28;20053;-73
2022/07/13 03:43:00;;;;;;;3.83;2.05;;;;;;;16.46;58.33;100728.91;5012026;28;20029;-73
2022/07/13 03:45:25;;;;;;;6.45;1.95;;;;;;;16.37;58.83;100716.31;5005036;28;20038;-74
2022/07/13 03:47:51;;;;;;;6.38;2.13;;;;;;;16.52;58.60;100728.28;5011998;28;20038;-72
2022/07/13 03:50:16;;;;;;;2.35;2.03;;;;;;;16.58;58.30;100733.91;5010632;28;20033;-73
2022/07/13 03:52:42;;;;;;;6.15;2.65;;;;;;;16.68;58.34;100731.91;5011817;28;20041;-72
2022/07/13 03:55:08;;;;;;;3.00;1.85;;;;;;;16.71;58.24;100714.47;5012102;28;20030;-74
2022/07/13 03:57:34;;;;;;;4.88;2.50;;;;;;;16.81;58.24;100726.88;5011727;28;20436;-73
2022/07/13 03:59:59;;;;;;;3.88;2.05;;;;;;;16.95;57.76;100730.78;5011715;28;20105;-73
2022/07/13 04:02:25;;;;;;;2.90;1.88;;;;;;;17.04;57.46;100735.22;5010288;28;20564;-73
2022/07/13 04:04:51;;;;;;;5.28;2.40;;;;;;;17.12;57.20;100724.41;5012529;28;20029;-72
2022/07/13 04:07:16;;;;;;;6.93;2.25;;;;;;;17.30;56.47;100722.38;5023235;28;20028;-73
2022/07/13 04:09:42;;;;;;;6.50;2.13;;;;;;;17.36;56.62;100725.28;5022230;28;20021;-73
2022/07/13 04:12:07;;;;;;;3.40;2.13;;;;;;;17.51;55.80;100718.19;5021793;28;20022;-73
2022/07/13 04:14:33;;;;;;;4.90;1.90;;;;;;;17.74;55.41;100723.81;5023148;28;20511;-72
2022/07/13 04:16:59;;;;;;;4.47;1.80;;;;;;;17.75;55.64;100715.50;5021340;28;20041;-73
2022/07/13 04:19:24;;;;;;;3.60;1.95;;;;;;;17.95;54.74;100730.38;5021978;28;20515;-72
2022/07/13 04:21:50;;;;;;;8.20;1.92;;;;;;;18.08;54.78;100727.13;5030827;28;20018;-68
2022/07/13 04:24:15;;;;;;;6.57;1.75;;;;;;;18.33;54.49;100734.22;5041970;28;20111;-67
2022/07/13 04:26:41;;;;;;;5.25;1.73;;;;;;;18.54;54.08;100731.78;5051108;28;20368;-67
2022/07/13 04:29:06;;;;;;;6.00;1.70;;;;;;;18.70;53.32;100725.44;5051339;28;20147;-66
2022/07/13 04:31:31;;;;;;;3.67;1.27;;;;;;;18.80;53.17;100728.81;5051015;28;20024;-66
2022/07/13 04:33:57;;;;;;;5.88;1.33;;;;;;;18.86;53.06;100728.91;5051041;28;20112;-66
2022/07/13 04:36:22;;;;;;;3.38;1.38;;;;;;;18.98;52.51;100722.06;5050804;28;20121;-67
2022/07/13 04:38:48;;;;;;;5.28;1.50;;;;;;;19.15;52.00;100729.09;5050855;28;20044;-67
2022/07/13 04:41:13;;;;;;;5.68;1.17;;;;;;;19.25;51.67;100726.97;5050402;28;20049;-67
2022/07/13 04:43:39;;;;;;;5.45;1.50;;;;;;;19.37;51.02;100728.31;5017319;28;20119;-66
2022/07/13 04:46:04;;;;;;;4.18;1.33;;;;;;;19.50;50.97;100730.41;5011105;28;20057;-66
2022/07/13 04:48:30;;;;;;;5.72;1.58;;;;;;;19.69;50.36;100719.03;5019044;28;20168;-67
2022/07/13 04:50:55;;;;;;;5.22;1.10;;;;;;;19.78;50.07;100726.94;5017689;28;20034;-67
2022/07/13 04:53:21;;;;;;;4.60;1.35;;;;;;;19.83;50.24;100729.13;5028109;28;20044;-67
2022/07/13 04:55:47;;;;;;;7.70;1.13;;;;;;;19.88;50.21;100715.78;5030894;28;20037;-67
2022/07/13 04:58:12;;;;;;;2.78;1.30;;;;;;;20.06;49.68;100725.28;5030705;28;20498;-66
2022/07/13 05:00:38;;;;;;;6.15;1.50;;;;;;;20.24;49.24;100722.25;5030799;28;20585;-66
2022/07/13 05:03:03;;;;;;;6.38;1.20;;;;;;;20.42;48.65;100711.84;5030488;28;20053;-66
2022/07/13 05:05:31;;;;;;;4.88;1.38;;;;;;;20.60;48.10;100722.38;5028694;28;20029;-67
2022/07/13 05:08:01;;;;;;;7.75;1.20;;;;;;;20.71;47.53;100709.09;5030010;28;20422;-66
2022/07/13 05:10:27;;;;;;;8.90;1.60;;;;;;;20.87;47.36;100710.75;5025738;28;20077;-67
2022/07/13 05:12:52;;;;;;;6.05;1.52;;;;;;;20.85;47.56;100704.63;5023210;28;20442;-67
2022/07/13 05:15:18;;;;;;;4.40;1.27;;;;;;;20.94;47.30;100681.69;5030170;28;20056;-67
2022/07/13 05:17:44;;;;;;;2.45;1.13;;;;;;;21.28;46.68;100710.00;5030143;28;20515;-66
2022/07/13 05:20:10;;;;;;;9.15;1.15;;;;;;;21.46;46.02;100717.72;5030034;28;20039;-73
2022/07/13 05:22:36;;;;;;;2.78;1.00;;;;;;;21.53;46.09;100718.63;5028846;28;20536;-73
2022/07/13 05:25:01;;;;;;;7.50;1.17;;;;;;;21.63;45.88;100722.72;5027242;28;20083;-73
2022/07/13 05:27:27;;;;;;;5.90;1.20;;;;;;;21.68;45.61;100711.22;5029779;28;20041;-73
2022/07/13 05:29:53;;;;;;;8.02;1.25;;;;;;;21.79;45.32;100716.19;5027612;28;20029;-72
2022/07/13 05:32:18;;;;;;;11.68;1.38;;;;;;;21.89;44.93;100716.69;5029763;28;20053;-72
2022/07/13 05:34:44;;;;;;;7.85;1.38;;;;;;;21.91;44.70;100720.06;5029932;28;20131;-75
2022/07/13 05:37:09;;;;;;;5.38;1.15;;;;;;;22.04;44.62;100721.03;5029921;28;20029;-74
2022/07/13 05:39:35;;;;;;;8.80;1.70;;;;;;;22.11;44.25;100716.44;5029924;28;20052;-73
2022/07/13 05:42:00;;;;;;;3.88;0.70;;;;;;;22.07;44.47;100711.56;5029761;28;20079;-73
2022/07/13 05:44:25;;;;;;;4.78;1.05;;;;;;;22.22;43.86;100715.06;5028422;28;20583;-72
2022/07/13 05:46:51;;;;;;;4.68;1.00;;;;;;;22.43;43.95;100720.44;5029837;28;20036;-73
2022/07/13 05:49:16;;;;;;;6.90;1.00;;;;;;;22.51;44.15;100728.53;5029905;28;20342;-72
2022/07/13 05:51:42;;;;;;;6.05;1.45;;;;;;;22.71;43.15;100709.47;5029760;28;20432;-72
2022/07/13 05:54:07;;;;;;;5.13;1.15;;;;;;;22.87;43.16;100728.28;5029840;28;20080;-72
2022/07/13 05:56:33;;;;;;;1.50;0.80;;;;;;;23.04;42.47;100719.50;5028622;28;20108;-72
2022/07/13 05:58:59;;;;;;;2.72;0.98;;;;;;;23.20;42.11;100718.28;5029877;28;20032;-73
2022/07/13 06:01:25;;;;;;;4.22;1.42;;;;;;;23.20;41.86;100691.75;5029880;28;20044;-73
2022/07/13 06:03:50;;;;;;;6.80;1.10;;;;;;;23.37;41.73;100701.28;5032698;28;20061;-74
2022/07/13 06:06:16;;;;;;;7.72;1.25;;;;;;;23.50;41.80;100709.53;5033839;28;20033;-73
2022/07/13 06:08:42;;;;;;;2.20;1.23;;;;;;;23.69;41.16;100708.72;5033763;28;20068;-74
2022/07/13 06:11:07;;;;;;;5.00;1.02;;;;;;;23.73;41.10;100709.97;5033691;28;20484;-73
2022/07/13 06:13:33;;;;;;;3.30;1.27;;;;;;;23.85;40.91;100707.44;5032083;28;20037;-73
2022/07/13 06:15:59;;;;;;;3.47;0.85;;;;;;;23.98;40.55;100718.44;5033601;28;20017;-73
2022/07/13 06:18:25;;;;;;;1.38;0.77;;;;;;;24.04;40.22;100707.47;5033702;28;20111;-73
2022/07/13 06:20:51;;;;;;;6.47;1.15;;;;;;;24.08;40.18;100708.75;5032120;28;20037;-73
2022/07/13 06:23:18;;;;;;;1.13;0.82;;;;;;;24.11;40.26;100708.31;5033411;28;20689;-73
2022/07/13 06:25:46;;;;;;;6.28;1.15;;;;;;;24.24;40.10;100705.56;5033312;28;20017;-74
2022/07/13 06:28:12;;;;;;;5.60;1.10;;;;;;;24.41;39.56;100706.78;5032306;28;20029;-73
2022/07/13 06:30:37;;;;;;;5.50;0.80;;;;;;;24.43;39.47;100698.34;5033235;28;20040;-73
2022/07/13 06:33:03;;;;;;;3.63;0.90;;;;;;;24.61;39.10;100706.72;5033600;28;20094;-73
2022/07/13 06:35:30;;;;;;;3.05;1.13;;;;;;;24.68;39.35;100706.72;5033612;28;20037;-73
2022/07/13 06:37:56;;;;;;;3.70;0.93;;;;;;;24.77;39.38;100699.94;5033231;28;20065;-73
2022/07/13 06:40:21;;;;;;;6.32;0.90;;;;;;;24.97;38.73;100697.94;5032058;28;20472;-66
2022/07/13 06:42:47;;;;;;;3.83;1.20;;;;;;;25.02;38.91;100700.91;5033193;28;20025;-66
2022/07/13 06:45:13;;;;;;;12.68;1.60;;;;;;;25.13;39.03;100700.19;5033225;28;20029;-67
2022/07/13 06:47:40;;;;;;;3.83;1.27;;;;;;;25.30;39.14;100693.13;5033193;28;20074;-65
2022/07/13 06:50:06;;;;;;;7.00;1.23;;;;;;;25.50;38.51;100686.47;5033059;28;20040;-67
2022/07/13 06:52:32;;;;;;;1.92;0.70;;;;;;;25.75;37.74;100700.22;5032975;28;20535;-67
2022/07/13 06:54:58;;;;;;;3.25;0.95;;;;;;;25.91;37.25;100702.41;5032712;28;20025;-66
2022/07/13 06:57:23;;;;;;;2.80;1.25;;;;;;;25.88;37.48;100702.84;5033175;28;20450;-66
2022/07/13 06:59:49;;;;;;;3.85;1.30;;;;;;;25.98;37.28;100697.72;5032987;28;20029;-66
2022/07/13 07:02:14;;;;;;;3.20;1.10;;;;;;;26.03;37.19;100684.16;5032775;28;20045;-65
2022/07/13 07:04:39;;;;;;;2.47;0.80;;;;;;;26.25;37.17;100700.00;5033164;28;20511;-66
2022/07/13 07:07:05;;;;;;;1.92;0.80;;;;;;;26.43;36.24;100690.94;5033009;28;20029;-66
2022/07/13 07:09:30;;;;;;;7.65;0.95;;;;;;;26.51;36.24;100696.16;5031525;28;20022;-67
2022/07/13 07:11:56;;;;;;;6.07;1.17;;;;;;;26.46;36.57;100690.47;5032658;28;20064;-67
2022/07/13 07:14:22;;;;;;;4.72;1.25;;;;;;;26.50;36.63;100692.53;5032069;28;20422;-67
2022/07/13 07:16:47;;;;;;;3.35;0.93;;;;;;;26.47;36.47;100673.72;5032683;28;20029;-66
2022/07/13 07:19:13;;;;;;;6.00;1.00;;;;;;;26.69;36.09;100684.34;5039813;28;20037;-66
2022/07/13 07:21:40;;;;;;;4.07;1.10;;;;;;;26.86;35.74;100675.22;5040024;28;20025;-67
2022/07/13 07:24:05;;;;;;;5.20;0.70;;;;;;;26.90;35.72;100683.84;5036271;28;20045;-67
2022/07/13 07:26:31;;;;;;;4.22;0.80;;;;;;;26.93;36.26;100686.97;5052565;28;20031;-67
2022/07/13 07:28:57;;;;;;;5.20;0.90;;;;;;;26.94;35.57;100663.00;5052543;28;20472;-66
2022/07/13 07:31:23;;;;;;;3.63;0.90;;;;;;;27.11;35.63;100675.91;5052201;28;20118;-67
2022/07/13 07:33:48;;;;;;;5.78;0.85;;;;;;;27.08;35.57;100683.81;5052331;28;20119;-66
2022/07/13 07:36:15;;;;;;;8.23;0.98;;;;;;;27.23;35.31;100675.94;5052332;28;20029;-66
2022/07/13 07:38:41;;;;;;;4.20;1.10;;;;;;;27.34;34.70;100676.03;5050838;28;20029;-66
2022/07/13 07:41:06;;;;;;;2.00;0.90;;;;;;;27.32;35.07;100691.97;5052199;28;20033;-66
2022/07/13 07:43:32;;;;;;;6.88;1.17;;;;;;;27.38;34.71;100682.75;5052030;28;20527;-67
2022/07/13 07:45:57;;;;;;;5.50;1.10;;;;;;;27.43;35.07;100673.78;5051021;28;20030;-66
2022/07/13 07:48:22;;;;;;;7.60;1.08;;;;;;;27.45;34.86;100677.13;5052191;28;20108;-67
2022/07/13 07:50:48;;;;;;;3.65;0.90;;;;;;;27.50;34.63;100672.59;5051846;28;20076;-66
2022/07/13 07:53:14;;;;;;;6.72;0.98;;;;;;;27.46;35.02;100679.66;5051831;28;20503;-67
2022/07/13 07:55:39;;;;;;;7.55;1.05;;;;;;;27.54;34.88;100670.22;5051958;28;20063;-66
2022/07/13 07:58:05;;;;;;;5.43;0.90;;;;;;;27.54;34.42;100673.81;5051886;28;20032;-66
2022/07/13 08:00:31;;;;;;;3.33;0.70;;;;;;;27.51;34.19;100660.50;5052007;28;20032;-67
2022/07/13 08:03:00;;;;;;;7.15;0.80;;;;;;;27.69;33.30;100663.16;5051559;28;20045;-68
2022/07/13 08:05:25;;;;;;;8.07;1.48;;;;;;;27.49;34.18;100659.91;5051724;28;20077;-67
2022/07/13 08:07:50;;;;;;;7.57;0.95;;;;;;;27.54;34.45;100681.25;5051773;28;20024;-66
2022/07/13 08:10:16;;;;;;;15.60;1.55;;;;;;;27.67;34.01;100658.97;5051229;28;20040;-73
2022/07/13 08:12:41;;;;;;;6.85;0.80;;;;;;;27.58;34.05;100658.50;5050003;28;20029;-73
2022/07/13 08:15:07;;;;;;;1.98;0.60;;;;;;;27.46;34.41;100649.34;5050997;28;20021;-73
2022/07/13 08:17:37;;;;;;;4.50;0.80;;;;;;;27.61;34.57;100651.66;5050470;28;20531;-73
2022/07/13 08:20:04;;;;;;;1.73;0.80;;;;;;;27.77;34.23;100657.31;5050207;28;20433;-73
2022/07/13 08:22:29;;;;;;;7.35;1.10;;;;;;;27.80;33.43;100665.13;5050695;28;20114;-72
2022/07/13 08:24:55;;;;;;;8.07;1.00;;;;;;;27.79;33.50;100660.66;5051045;28;20041;-73
2022/07/13 08:27:20;;;;;;;3.55;1.00;;;;;;;27.78;33.57;100661.75;5049953;28;20082;-74
2022/07/13 08:29:46;;;;;;;11.10;1.08;;;;;;;27.79;33.66;100657.09;5049498;28;20017;-72
2022/07/13 08:32:12;;;;;;;10.40;1.77;;;;;;;27.79;33.25;100644.13;5050844;28;20029;-72
2022/07/13 08:40:08;;;;;;;2.95;0.70;;;;;;;27.93;33.50;100655.81;5050851;28;20044;-72
2022/07/13 08:42:34;;;;;;;1.30;0.65;;;;;;;27.94;33.92;100661.06;5050677;28;20009;-72
2022/07/13 08:45:00;;;;;;;7.60;1.00;;;;;;;28.02;34.00;100638.63;5050673;28;20490;-73
2022/07/13 08:47:29;;;;;;;11.73;1.30;;;;;;;28.05;33.79;100651.13;5049338;28;20060;-73
2022/07/13 08:50:02;;;;;;;5.40;0.90;;;;;;;28.14;33.01;100650.50;5050568;28;20040;-74
2022/07/13 08:52:30;;;;;;;4.93;1.52;;;;;;;28.17;33.22;100640.91;5050761;28;20040;-73
2022/07/13 08:54:56;;;;;;;12.27;1.73;;;;;;;28.32;33.28;100649.53;5050783;28;20048;-73
2022/07/13 08:57:22;;;;;;;15.82;2.17;;;;;;;28.34;33.14;100642.69;5050810;28;20039;-73
2022/07/13 08:59:47;;;;;;;9.63;1.02;;;;;;;28.33;32.34;100642.94;5050344;28;20021;-73
2022/07/13 09:02:13;;;;;;;5.03;1.27;;;;;;;28.33;33.07;100634.66;5050422;28;20049;-73
2022/07/13 09:04:40;;;;;;;2.92;0.93;;;;;;;28.28;33.32;100623.53;5050610;28;20028;-73
2022/07/13 09:07:11;;;;;;;9.85;1.10;;;;;;;28.29;32.77;100627.94;5050472;28;20043;-73
2022/07/13 09:09:38;;;;;;;1.35;0.80;;;;;;;28.40;32.27;100638.97;5048916;28;20024;-72
2022/07/13 09:12:19;;;;;;;5.90;1.33;;;;;;;28.54;31.42;100643.16;5050060;28;20036;-72
2022/07/13 09:14:54;;;;;;;4.88;0.90;;;;;;;28.50;31.90;100621.81;5050024;28;20028;-72
2022/07/13 09:17:27;;;;;;;6.00;1.00;;;;;;;28.50;32.31;100635.59;5049930;28;20028;-72
2022/07/13 09:19:53;;;;;;;5.40;1.10;;;;;;;28.35;32.02;100615.94;5048597;28;20475;-73
2022/07/13 09:22:18;;;;;;;14.80;1.55;;;;;;;28.59;31.44;100628.63;5048643;28;20282;-73
2022/07/13 09:24:50;;;;;;;12.52;1.38;;;;;;;28.62;31.66;100632.84;5049763;28;20033;-73
2022/07/13 09:27:17;;;;;;;9.88;1.58;;;;;;;28.65;32.21;100622.13;5048602;28;20024;-73
2022/07/13 09:29:43;;;;;;;3.90;1.00;;;;;;;28.62;32.40;100608.00;5049732;28;20033;-74
2022/07/13 09:32:11;;;;;;;13.48;1.23;;;;;;;28.59;32.18;100625.06;5049918;28;20067;-73
2022/07/13 09:34:54;;;;;;;9.77;1.00;;;;;;;28.67;32.62;100619.97;5048471;28;20025;-72
2022/07/13 09:37:26;;;;;;;5.47;0.90;;;;;;;28.69;32.26;100617.78;5049430;28;20029;-73
2022/07/13 09:39:59;;;;;;;8.40;1.40;;;;;;;28.77;32.29;100628.47;5049699;28;20105;-72
2022/07/13 09:42:41;;;;;;;4.28;0.95;;;;;;;28.76;32.29;100632.31;5049666;28;20060;-73
2022/07/13 09:47:57;;;;;;;6.57;1.08;;;;;;;28.92;32.00;100619.66;5049685;28;20102;-72
2022/07/13 09:50:35;;;;;;;9.20;1.15;;;;;;;29.07;30.88;100626.31;5049471;28;20407;-73
2022/07/13 09:53:01;;;;;;;12.57;1.35;;;;;;;28.96;30.42;100631.88;5049280;28;20484;-73
2022/07/13 09:55:27;;;;;;;6.20;1.23;;;;;;;28.98;31.12;100615.91;5049498;28;20036;-72
2022/07/13 09:57:57;;;;;;;11.20;1.65;;;;;;;29.02;30.50;100652.97;5049465;28;20029;-72
2022/07/13 10:00:23;;;;;;;10.85;1.67;;;;;;;29.17;29.78;100629.28;5049410;28;20101;-72
2022/07/13 10:02:49;;;;;;;3.65;1.10;;;;;;;29.01;29.68;100610.69;5048990;28;20146;-71
2022/07/13 10:05:18;;;;;;;1.63;0.70;;;;;;;28.99;30.32;100623.94;5049436;28;20029;-72
2022/07/13 10:07:45;;;;;;;5.78;1.23;;;;;;;28.92;30.83;100598.38;5049173;28;20099;-72
2022/07/13 10:10:12;;;;;;;7.63;1.27;;;;;;;28.98;30.32;100604.84;5049316;28;20033;-73
2022/07/13 10:12:38;;;;;;;4.85;0.90;;;;;;;28.95;30.17;100605.34;5049202;28;20021;-72
2022/07/13 10:15:05;;;;;;;7.85;1.30;;;;;;;29.12;30.28;100615.38;5049144;28;20086;-74
2022/07/13 10:17:31;;;;;;;8.80;1.58;;;;;;;29.21;29.43;100618.56;5049321;28;20029;-73
2022/07/13 10:19:56;;;;;;;20.73;2.47;;;;;;;29.15;29.44;100616.81;5047884;28;20043;-72
2022/07/13 10:22:25;;;;;;;4.07;1.00;;;;;;;29.17;29.58;100604.41;5049169;28;20047;-73
2022/07/13 10:24:58;;;;;;;23.30;2.47;;;;;;;29.18;29.80;100605.25;5049197;28;20048;-73
2022/07/13 10:27:26;;;;;;;19.40;1.48;;;;;;;29.19;30.30;100612.44;5049383;28;20086;-74
2022/07/13 10:30:06;;;;;;;9.70;1.13;;;;;;;29.33;29.25;100606.34;5049545;28;20059;-74
2022/07/13 10:32:35;;;;;;;7.15;1.17;;;;;;;29.28;29.54;100599.91;5049346;28;20887;-73
2022/07/13 10:35:09;;;;;;;7.70;1.00;;;;;;;29.19;30.09;100616.06;5049082;28;20029;-73
2022/07/13 10:37:56;;;;;;;2.42;0.88;;;;;;;29.28;29.37;100603.50;5047868;28;20053;-73
2022/07/13 10:40:23;;;;;;;8.02;1.05;;;;;;;29.25;29.25;100601.25;5049274;28;20029;-72
2022/07/13 10:42:54;;;;;;;5.70;0.85;;;;;;;29.20;29.56;100592.00;5049112;28;20431;-72
2022/07/13 10:45:44;;;;;;;1.85;0.90;;;;;;;29.23;29.98;100592.34;5047611;28;20033;-73
2022/07/13 10:48:21;;;;;;;5.30;1.10;;;;;;;29.25;29.91;100586.59;5047824;28;20037;-73
2022/07/13 10:50:52;;;;;;;4.28;1.00;;;;;;;29.21;30.08;100577.13;5051656;28;20105;-72
2022/07/13 10:53:19;;;;;;;7.80;1.20;;;;;;;29.26;29.72;100583.56;5052724;28;20462;-73
2022/07/13 10:55:47;;;;;;;7.88;1.35;;;;;;;29.37;29.63;100587.34;5052893;28;20464;-73
2022/07/13 10:58:31;;;;;;;15.23;1.48;;;;;;;29.34;30.00;100593.38;5051317;28;20507;-73
2022/07/13 11:00:59;;;;;;;8.77;1.10;;;;;;;29.40;29.52;100581.31;5052571;28;20200;-72
2022/07/13 11:03:27;;;;;;;4.80;1.08;;;;;;;29.32;29.88;100584.50;5052553;28;20052;-72
2022/07/13 11:06:12;;;;;;;4.70;0.90;;;;;;;29.40;29.95;100592.38;5052567;28;20047;-72
2022/07/13 11:08:39;;;;;;;5.78;0.68;;;;;;;29.34;29.65;100579.56;5052704;28;20028;-73
2022/07/13 11:11:15;;;;;;;9.30;1.27;;;;;;;29.57;29.01;100583.00;5052148;28;20033;-74
2022/07/13 11:13:44;;;;;;;9.95;1.33;;;;;;;29.45;29.68;100570.34;5052426;28;20048;-73
2022/07/13 11:16:12;;;;;;;5.32;1.30;;;;;;;29.48;30.12;100580.91;5052776;28;20045;-72
2022/07/13 11:18:38;;;;;;;5.35;1.27;;;;;;;29.38;29.86;100542.88;5052680;28;20063;-72
2022/07/13 11:21:04;;;;;;;14.13;1.30;;;;;;;29.76;29.74;100592.72;5052364;28;20128;-73
2022/07/13 11:26:44;;;;;;;10.68;1.40;;;;;;;29.78;29.73;100578.63;5052627;28;20395;-73
2022/07/13 11:29:35;;;;;;;8.02;1.02;;;;;;;29.72;29.63;100585.19;5052500;28;20021;-72
2022/07/13 11:32:02;;;;;;;3.33;0.75;;;;;;;29.65;28.94;100579.84;5052148;28;20040;-72
2022/07/13 11:34:29;;;;;;;2.17;0.90;;;;;;;29.68;28.87;100573.81;5051951;28;20460;-72